createdAt,value
2023-05-25T00:02:24.974Z,10.90
2023-05-25T00:04:53.074Z,10.90
2023-05-25T00:07:21.137Z,11.00
2023-05-25T00:09:49.020Z,11.00
2023-05-25T00:12:16.875Z,11.00
2023-05-25T00:14:44.864Z,10.90
2023-05-25T00:17:13.037Z,10.90
2023-05-25T00:19:44.064Z,10.80
2023-05-25T00:22:11.989Z,10.80
2023-05-25T00:24:41.113Z,10.80
2023-05-25T00:27:09.112Z,10.80
2023-05-25T00:29:37.398Z,10.70
2023-05-25T00:32:06.589Z,10.70
2023-05-25T00:34:34.468Z,10.60
2023-05-25T00:37:04.113Z,10.60
2023-05-25T00:39:31.990Z,10.60
2023-05-25T00:42:01.632Z,10.50
2023-05-25T00:44:29.591Z,10.50
2023-05-25T00:46:57.587Z,10.50
2023-05-25T00:49:25.727Z,10.50
2023-05-25T00:51:54.164Z,10.60
2023-05-25T00:54:23.882Z,10.60
2023-05-25T00:56:54.328Z,10.60
2023-05-25T00:59:35.980Z,10.60
2023-05-25T01:02:06.954Z,10.60
2023-05-25T01:04:37.627Z,10.60
2023-05-25T01:07:09.471Z,10.60
2023-05-25T01:09:41.015Z,10.60
2023-05-25T01:12:10.353Z,10.60
2023-05-25T01:14:40.458Z,10.60
2023-05-25T01:17:09.815Z,10.50
2023-05-25T01:19:40.995Z,10.60
2023-05-25T01:22:22.934Z,10.70
2023-05-25T01:24:54.551Z,10.70
2023-05-25T01:27:28.036Z,10.70
2023-05-25T01:29:58.641Z,10.70
2023-05-25T01:32:27.410Z,10.70
2023-05-25T01:34:57.735Z,10.70
2023-05-25T01:37:29.092Z,10.70
2023-05-25T01:39:56.958Z,10.70
2023-05-25T01:42:24.819Z,10.70
2023-05-25T01:44:52.972Z,10.60
2023-05-25T01:47:24.598Z,10.70
2023-05-25T01:50:01.157Z,10.80
2023-05-25T01:52:36.194Z,10.80
2023-05-25T01:55:07.512Z,10.80
2023-05-25T01:57:38.395Z,10.80
2023-05-25T02:00:07.761Z,10.70
2023-05-25T02:02:36.676Z,10.70
2023-05-25T02:05:05.050Z,10.80
2023-05-25T02:07:35.077Z,10.80
2023-05-25T02:10:02.956Z,10.80
2023-05-25T02:12:30.928Z,10.90
2023-05-25T02:14:58.830Z,10.90
2023-05-25T02:17:28.697Z,10.90
2023-05-25T02:19:57.131Z,11.00
2023-05-25T02:22:25.127Z,11.00
2023-05-25T02:24:54.323Z,11.10
2023-05-25T02:27:22.216Z,11.00
2023-05-25T02:29:50.588Z,10.90
2023-05-25T02:32:18.490Z,10.80
2023-05-25T02:34:46.885Z,10.80
2023-05-25T02:37:14.903Z,10.80
2023-05-25T02:39:42.742Z,10.80
2023-05-25T02:42:11.952Z,10.70
2023-05-25T02:44:39.835Z,10.80
2023-05-25T02:47:07.904Z,10.90
2023-05-25T02:49:35.832Z,11.00
2023-05-25T02:52:03.748Z,11.10
2023-05-25T02:54:31.597Z,11.10
2023-05-25T02:56:59.469Z,11.10
2023-05-25T02:59:28.683Z,11.20
2023-05-25T03:01:56.538Z,11.20
2023-05-25T03:04:24.403Z,11.10
2023-05-25T03:06:52.261Z,11.00
2023-05-25T03:09:20.143Z,11.10
2023-05-25T03:11:48.013Z,11.10
2023-05-25T03:14:16.042Z,11.10
2023-05-25T03:16:45.562Z,11.10
2023-05-25T03:19:13.727Z,11.10
2023-05-25T03:21:41.594Z,11.10
2023-05-25T03:24:09.555Z,11.20
2023-05-25T03:26:37.568Z,11.20
2023-05-25T03:29:06.780Z,11.20
2023-05-25T03:31:34.662Z,11.20
2023-05-25T03:34:04.209Z,11.30
2023-05-25T03:36:33.655Z,11.30
2023-05-25T03:39:01.838Z,11.30
2023-05-25T03:41:29.709Z,11.40
2023-05-25T03:43:57.589Z,11.40
2023-05-25T03:46:25.588Z,11.40
2023-05-25T03:48:53.487Z,11.50
2023-05-25T03:51:22.703Z,11.40
2023-05-25T03:53:50.603Z,11.40
2023-05-25T03:56:18.468Z,11.30
2023-05-25T03:58:46.383Z,11.30
2023-05-25T04:01:14.697Z,11.30
2023-05-25T04:03:42.840Z,11.20
2023-05-25T04:06:11.516Z,11.30
2023-05-25T04:08:41.032Z,11.30
2023-05-25T04:11:09.772Z,11.20
2023-05-25T04:13:40.293Z,11.30
2023-05-25T04:16:09.706Z,11.20
2023-05-25T04:18:37.704Z,11.30
2023-05-25T04:21:05.956Z,11.40
2023-05-25T04:23:34.892Z,11.30
2023-05-25T04:26:05.994Z,11.30
2023-05-25T04:28:34.098Z,11.40
2023-05-25T04:31:01.970Z,11.40
2023-05-25T04:33:30.177Z,11.40
2023-05-25T04:35:59.427Z,11.50
2023-05-25T04:38:27.390Z,11.30
2023-05-25T04:40:56.213Z,11.30
2023-05-25T04:43:25.890Z,11.20
2023-05-25T04:45:54.407Z,11.10
2023-05-25T04:48:22.857Z,11.10
2023-05-25T04:50:51.760Z,11.10
2023-05-25T04:53:20.370Z,11.20
2023-05-25T04:55:49.329Z,11.30
2023-05-25T04:58:17.206Z,11.50
2023-05-25T05:00:47.161Z,11.50
2023-05-25T05:03:15.231Z,11.50
2023-05-25T05:05:44.493Z,11.40
2023-05-25T05:08:12.630Z,11.40
2023-05-25T05:10:40.587Z,11.40
2023-05-25T05:13:08.423Z,11.50
2023-05-25T05:15:36.304Z,11.50
2023-05-25T05:18:06.283Z,11.60
2023-05-25T05:20:34.272Z,11.60
2023-05-25T05:23:02.185Z,11.60
2023-05-25T05:25:30.234Z,11.70
2023-05-25T05:27:58.266Z,11.80
2023-05-25T05:30:26.174Z,11.90
2023-05-25T05:32:54.060Z,12.00
2023-05-25T05:35:23.289Z,12.10
2023-05-25T05:37:51.138Z,12.20
2023-05-25T05:40:19.059Z,12.20
2023-05-25T05:42:46.967Z,12.40
2023-05-25T05:45:14.870Z,12.40
2023-05-25T05:47:42.805Z,12.50
2023-05-25T05:50:11.326Z,12.60
2023-05-25T05:52:40.510Z,12.70
2023-05-25T05:55:09.633Z,12.80
2023-05-25T05:57:37.472Z,13.00
2023-05-25T06:00:06.887Z,13.00
2023-05-25T06:02:34.961Z,13.10
2023-05-25T06:05:02.924Z,13.20
2023-05-25T06:07:30.999Z,13.30
2023-05-25T06:10:00.292Z,13.40
2023-05-25T06:12:32.115Z,13.50
2023-05-25T06:15:00.000Z,13.50
2023-05-25T06:17:29.566Z,13.60
2023-05-25T06:19:57.539Z,13.60
2023-05-25T06:22:27.860Z,13.70
2023-05-25T06:24:56.115Z,13.70
2023-05-25T06:27:25.359Z,13.80
2023-05-25T06:29:53.246Z,13.90
2023-05-25T06:32:21.169Z,13.90
2023-05-25T06:34:49.035Z,14.00
2023-05-25T06:37:16.935Z,14.10
2023-05-25T06:39:44.891Z,14.20
2023-05-25T06:42:12.804Z,14.30
2023-05-25T06:44:41.996Z,14.40
2023-05-25T06:47:09.894Z,14.40
2023-05-25T06:49:37.769Z,14.50
2023-05-25T06:52:06.301Z,14.60
2023-05-25T06:54:34.235Z,14.60
2023-05-25T06:57:02.409Z,14.70
2023-05-25T06:59:30.304Z,14.60
2023-05-25T07:02:00.057Z,14.70
2023-05-25T07:04:28.519Z,14.70
2023-05-25T07:06:56.428Z,14.90
2023-05-25T07:09:24.314Z,15.00
2023-05-25T07:11:52.163Z,15.10
2023-05-25T07:14:20.010Z,15.20
2023-05-25T07:16:48.196Z,15.20
2023-05-25T07:19:17.523Z,15.20
2023-05-25T07:21:45.379Z,15.30
2023-05-25T07:24:13.284Z,15.30
2023-05-25T07:26:41.246Z,15.30
2023-05-25T07:29:09.090Z,15.30
2023-05-25T07:31:37.362Z,15.40
2023-05-25T07:34:05.262Z,15.60
2023-05-25T07:36:34.475Z,15.60
2023-05-25T07:39:02.717Z,15.70
2023-05-25T07:41:30.554Z,15.90
2023-05-25T07:43:58.410Z,16.10
2023-05-25T07:46:27.274Z,16.10
2023-05-25T07:48:56.196Z,16.20
2023-05-25T07:51:26.345Z,16.30
2023-05-25T07:53:56.585Z,16.40
2023-05-25T07:56:24.583Z,16.50
2023-05-25T07:58:52.452Z,16.50
2023-05-25T08:01:20.335Z,16.50
2023-05-25T08:03:50.098Z,16.60
2023-05-25T08:06:18.756Z,16.80
2023-05-25T08:08:46.981Z,16.90
2023-05-25T08:11:17.434Z,17.10
2023-05-25T08:13:45.669Z,17.20
2023-05-25T08:16:13.581Z,17.30
2023-05-25T08:18:44.180Z,17.40
2023-05-25T08:21:12.102Z,17.40
2023-05-25T08:23:42.309Z,17.50
2023-05-25T08:26:28.596Z,17.80
2023-05-25T08:28:59.549Z,18.00
2023-05-25T08:31:27.438Z,18.20
2023-05-25T08:33:55.478Z,18.30
2023-05-25T08:36:23.409Z,18.30
2023-05-25T08:38:51.297Z,18.30
2023-05-25T08:41:20.239Z,18.40
2023-05-25T08:43:48.359Z,18.50
2023-05-25T08:46:28.675Z,18.50
2023-05-25T08:49:02.040Z,18.40
2023-05-25T08:51:33.855Z,18.50
2023-05-25T08:54:07.545Z,18.60
2023-05-25T08:56:42.211Z,18.80
2023-05-25T08:59:18.618Z,18.70
2023-05-25T09:01:52.979Z,18.50
2023-05-25T09:04:22.007Z,18.70
2023-05-25T09:07:05.868Z,18.90
2023-05-25T09:09:39.516Z,18.90
2023-05-25T09:12:08.419Z,18.90
2023-05-25T09:14:37.605Z,19.10
2023-05-25T09:17:07.895Z,19.30
2023-05-25T09:19:37.417Z,19.40
2023-05-25T09:22:15.124Z,19.20
2023-05-25T09:24:45.322Z,19.20
2023-05-25T09:27:14.715Z,19.40
2023-05-25T09:29:42.697Z,19.60
2023-05-25T09:32:12.055Z,20.00
2023-05-25T09:34:39.968Z,20.10
2023-05-25T09:37:13.387Z,19.90
2023-05-25T09:39:42.070Z,19.80
2023-05-25T09:42:10.045Z,20.00
2023-05-25T09:44:38.032Z,20.00
2023-05-25T09:47:06.866Z,20.30
2023-05-25T09:49:36.862Z,20.40
2023-05-25T09:52:04.949Z,20.70
2023-05-25T09:54:32.882Z,21.00
2023-05-25T09:57:05.214Z,21.20
2023-05-25T09:59:33.488Z,21.50
2023-05-25T10:02:02.235Z,21.40
2023-05-25T10:04:30.207Z,21.30
2023-05-25T10:07:01.086Z,21.40
2023-05-25T10:09:30.453Z,21.20
2023-05-25T10:11:59.482Z,21.10
2023-05-25T10:14:29.734Z,21.30
2023-05-25T10:17:00.195Z,21.30
2023-05-25T10:19:34.198Z,21.40
2023-05-25T10:22:09.787Z,21.70
2023-05-25T10:24:45.995Z,21.70
2023-05-25T10:27:26.927Z,21.70
2023-05-25T10:29:58.001Z,21.80
2023-05-25T10:32:26.676Z,22.00
2023-05-25T10:34:54.845Z,22.10
2023-05-25T10:37:27.185Z,22.10
2023-05-25T10:39:56.783Z,22.20
2023-05-25T10:42:24.703Z,22.10
2023-05-25T10:44:53.373Z,22.20
2023-05-25T10:47:22.037Z,22.30
2023-05-25T10:49:55.269Z,22.60
2023-05-25T10:52:29.249Z,22.50
2023-05-25T10:54:58.068Z,22.50
2023-05-25T10:57:27.090Z,22.30
2023-05-25T11:00:01.498Z,22.60
2023-05-25T11:02:30.110Z,22.80
2023-05-25T11:05:34.164Z,22.70
2023-05-25T11:08:06.316Z,22.80
2023-05-25T11:10:59.816Z,22.90
2023-05-25T11:13:45.800Z,22.70
2023-05-25T11:16:21.998Z,22.60
2023-05-25T11:18:54.883Z,22.70
2023-05-25T11:21:40.557Z,23.00
2023-05-25T11:24:15.409Z,23.20
2023-05-25T11:26:57.797Z,23.60
2023-05-25T11:29:27.017Z,23.70
2023-05-25T11:31:56.116Z,23.60
2023-05-25T11:34:25.722Z,23.80
2023-05-25T11:37:01.684Z,23.90
2023-05-25T11:39:31.876Z,23.30
2023-05-25T11:42:04.886Z,23.20
2023-05-25T11:44:34.402Z,23.30
2023-05-25T11:47:05.839Z,23.60
2023-05-25T11:49:33.753Z,23.80
2023-05-25T11:52:07.189Z,23.70
2023-05-25T11:54:37.137Z,23.10
2023-05-25T11:57:05.520Z,23.30
2023-05-25T11:59:33.710Z,23.60
2023-05-25T12:02:03.058Z,23.60
2023-05-25T12:04:32.729Z,23.70
2023-05-25T12:07:04.192Z,23.70
2023-05-25T12:09:33.289Z,23.50
2023-05-25T12:12:04.919Z,23.80
2023-05-25T12:14:36.048Z,24.00
2023-05-25T12:17:04.306Z,23.90
2023-05-25T12:19:32.917Z,24.10
2023-05-25T12:22:00.928Z,24.30
2023-05-25T12:24:28.888Z,24.30
2023-05-25T12:26:57.469Z,23.90
2023-05-25T12:29:27.130Z,23.80
2023-05-25T12:32:02.538Z,24.30
2023-05-25T12:34:30.450Z,24.10
2023-05-25T12:36:58.452Z,23.90
2023-05-25T12:39:39.022Z,23.80
2023-05-25T12:42:13.196Z,23.70
2023-05-25T12:44:43.449Z,23.70
2023-05-25T12:47:13.128Z,23.80
2023-05-25T12:49:42.253Z,24.00
2023-05-25T12:52:11.670Z,24.40
2023-05-25T12:54:45.138Z,24.20
2023-05-25T12:57:14.766Z,24.40
2023-05-25T12:59:45.719Z,24.70
2023-05-25T13:02:14.865Z,24.80
2023-05-25T13:04:44.432Z,24.80
2023-05-25T13:07:12.566Z,24.80
2023-05-25T13:09:40.492Z,25.00
2023-05-25T13:12:09.329Z,24.80
2023-05-25T13:14:37.175Z,24.50
2023-05-25T13:17:06.675Z,25.00
2023-05-25T13:19:34.555Z,25.10
2023-05-25T13:22:02.466Z,25.60
2023-05-25T13:24:30.732Z,25.70
2023-05-25T13:26:58.599Z,25.60
2023-05-25T13:29:26.588Z,25.50
2023-05-25T13:31:54.473Z,25.60
2023-05-25T13:34:23.708Z,25.90
2023-05-25T13:36:51.579Z,26.00
2023-05-25T13:39:19.822Z,25.90
2023-05-25T13:41:48.044Z,25.30
2023-05-25T13:44:17.758Z,25.60
2023-05-25T13:46:45.927Z,25.80
2023-05-25T13:49:15.189Z,26.30
2023-05-25T13:51:44.434Z,26.50
2023-05-25T13:54:13.653Z,27.00
2023-05-25T13:56:42.312Z,26.90
2023-05-25T13:59:10.421Z,26.50
2023-05-25T14:01:38.398Z,26.60
2023-05-25T14:04:06.334Z,26.70
2023-05-25T14:06:34.778Z,26.90
2023-05-25T14:09:04.202Z,26.60
2023-05-25T14:11:32.069Z,26.40
2023-05-25T14:13:59.983Z,26.20
2023-05-25T14:16:27.986Z,26.10
2023-05-25T14:18:56.584Z,26.20
2023-05-25T14:21:24.521Z,26.00
2023-05-25T14:23:52.409Z,26.20
2023-05-25T14:26:22.091Z,26.00
2023-05-25T14:28:50.182Z,26.00
2023-05-25T14:31:18.131Z,26.00
2023-05-25T14:33:46.071Z,25.70
2023-05-25T14:36:13.977Z,25.90
2023-05-25T14:38:41.856Z,25.70
2023-05-25T14:41:09.709Z,25.30
2023-05-25T14:43:38.920Z,25.40
2023-05-25T14:46:07.359Z,25.40
2023-05-25T14:48:36.173Z,25.30
2023-05-25T14:51:04.274Z,25.40
2023-05-25T14:53:32.160Z,25.60
2023-05-25T14:56:00.008Z,25.40
2023-05-25T14:58:28.766Z,25.40
2023-05-25T15:00:58.192Z,25.20
2023-05-25T15:03:26.108Z,24.90
2023-05-25T15:05:54.025Z,24.90
2023-05-25T15:08:21.910Z,24.90
2023-05-25T15:10:49.827Z,24.80
2023-05-25T15:13:18.655Z,24.70
2023-05-25T15:15:46.723Z,24.70
2023-05-25T15:18:16.368Z,24.80
2023-05-25T15:20:44.344Z,25.10
2023-05-25T15:23:12.472Z,24.90
2023-05-25T15:25:40.375Z,25.30
2023-05-25T15:28:08.233Z,25.40
2023-05-25T15:30:36.400Z,25.40
2023-05-25T15:33:04.470Z,25.30
2023-05-25T15:35:33.754Z,25.00
2023-05-25T15:38:02.200Z,24.70
2023-05-25T15:40:30.057Z,24.70
2023-05-25T15:42:57.938Z,24.70
2023-05-25T15:45:26.365Z,24.40
2023-05-25T15:47:54.388Z,24.10
2023-05-25T15:50:22.299Z,24.00
2023-05-25T15:52:51.539Z,23.80
2023-05-25T15:55:19.479Z,23.80
2023-05-25T15:57:47.374Z,23.60
2023-05-25T16:00:17.411Z,23.30
2023-05-25T16:02:45.364Z,23.20
2023-05-25T16:05:13.356Z,23.10
2023-05-25T16:07:41.411Z,22.90
2023-05-25T16:10:11.432Z,22.60
2023-05-25T16:12:39.300Z,22.60
2023-05-25T16:15:08.104Z,22.50
2023-05-25T16:17:35.950Z,22.40
2023-05-25T16:20:03.951Z,22.40
2023-05-25T16:22:31.891Z,22.40
2023-05-25T16:24:59.787Z,22.30
2023-05-25T16:27:29.001Z,22.10
2023-05-25T16:29:56.956Z,22.00
2023-05-25T16:32:24.893Z,21.90
2023-05-25T16:34:52.780Z,21.80
2023-05-25T16:37:20.967Z,21.70
2023-05-25T16:39:48.887Z,21.70
2023-05-25T16:42:16.732Z,21.80
2023-05-25T16:44:45.971Z,21.70
2023-05-25T16:47:13.894Z,21.60
2023-05-25T16:49:41.737Z,21.40
2023-05-25T16:52:09.877Z,21.40
2023-05-25T16:54:37.706Z,21.20
2023-05-25T16:57:06.885Z,21.20
2023-05-25T16:59:34.738Z,21.10
2023-05-25T17:02:03.934Z,21.10
2023-05-25T17:04:31.802Z,21.10
2023-05-25T17:06:59.687Z,21.10
2023-05-25T17:09:27.561Z,21.00
2023-05-25T17:11:59.384Z,20.90
2023-05-25T17:14:27.322Z,20.70
2023-05-25T17:16:55.173Z,20.70
2023-05-25T17:19:24.402Z,20.60
2023-05-25T17:21:52.257Z,20.60
2023-05-25T17:24:20.244Z,20.60
2023-05-25T17:26:50.045Z,20.50
2023-05-25T17:29:18.048Z,20.40
2023-05-25T17:31:48.509Z,20.20
2023-05-25T17:34:16.954Z,20.30
2023-05-25T17:36:46.181Z,20.20
2023-05-25T17:39:14.067Z,20.20
2023-05-25T17:41:42.061Z,20.10
2023-05-25T17:44:09.895Z,20.10
2023-05-25T17:46:37.974Z,20.00
2023-05-25T17:49:05.970Z,20.00
2023-05-25T17:51:33.870Z,19.90
2023-05-25T17:54:03.745Z,19.90
2023-05-25T17:56:31.948Z,19.70
2023-05-25T17:58:59.801Z,19.70
2023-05-25T18:01:27.781Z,19.70
2023-05-25T18:03:56.519Z,19.70
2023-05-25T18:06:24.996Z,19.70
2023-05-25T18:08:53.625Z,19.60
2023-05-25T18:11:23.353Z,19.60
2023-05-25T18:13:51.711Z,19.60
2023-05-25T18:16:19.612Z,19.50
2023-05-25T18:18:47.877Z,19.40
2023-05-25T18:21:15.807Z,19.40
2023-05-25T18:23:43.677Z,19.30
2023-05-25T18:26:11.543Z,19.20
2023-05-25T18:28:40.751Z,19.10
2023-05-25T18:31:09.176Z,19.00
2023-05-25T18:33:37.167Z,18.90
2023-05-25T18:36:05.316Z,18.80
2023-05-25T18:38:33.174Z,18.80
2023-05-25T18:41:01.081Z,18.70
2023-05-25T18:43:29.002Z,18.70
2023-05-25T18:45:58.202Z,18.60
2023-05-25T18:48:26.446Z,18.50
2023-05-25T18:50:54.316Z,18.40
2023-05-25T18:53:22.316Z,18.30
2023-05-25T18:55:50.340Z,18.20
2023-05-25T18:58:18.200Z,18.10
2023-05-25T19:00:46.039Z,18.10
2023-05-25T19:03:15.484Z,18.00
2023-05-25T19:05:43.544Z,17.90
2023-05-25T19:08:11.568Z,17.80
2023-05-25T19:10:41.553Z,17.70
2023-05-25T19:13:09.986Z,17.70
2023-05-25T19:15:38.313Z,17.70
2023-05-25T19:18:06.549Z,17.60
2023-05-25T19:20:36.654Z,17.50
2023-05-25T19:23:04.553Z,17.50
2023-05-25T19:25:32.634Z,17.40
2023-05-25T19:28:00.605Z,17.40
2023-05-25T19:30:28.458Z,17.30
2023-05-25T19:32:56.408Z,17.20
2023-05-25T19:35:24.304Z,17.10
2023-05-25T19:37:53.549Z,17.10
2023-05-25T19:40:21.586Z,17.10
2023-05-25T19:42:49.472Z,17.00
2023-05-25T19:45:19.133Z,16.90
2023-05-25T19:47:47.371Z,16.90
2023-05-25T19:50:15.525Z,16.80
2023-05-25T19:52:43.424Z,16.70
2023-05-25T19:55:12.665Z,16.70
2023-05-25T19:57:40.505Z,16.60
2023-05-25T20:00:20.811Z,16.60
2023-05-25T20:02:53.829Z,16.50
2023-05-25T20:05:21.892Z,16.50
2023-05-25T20:07:50.826Z,16.40
2023-05-25T20:10:20.291Z,16.30
2023-05-25T20:12:48.204Z,16.30
2023-05-25T20:15:16.657Z,16.30
2023-05-25T20:17:44.649Z,16.20
2023-05-25T20:20:12.752Z,16.20
2023-05-25T20:22:41.005Z,16.10
2023-05-25T20:25:09.158Z,16.00
2023-05-25T20:27:38.374Z,16.00
2023-05-25T20:30:07.500Z,15.90
2023-05-25T20:32:35.595Z,15.90
2023-05-25T20:35:03.642Z,15.90
2023-05-25T20:37:31.502Z,15.90
2023-05-25T20:39:59.403Z,15.80
2023-05-25T20:42:27.277Z,15.80
2023-05-25T20:44:56.469Z,15.80
2023-05-25T20:47:24.424Z,15.80
2023-05-25T20:49:52.271Z,15.70
2023-05-25T20:52:21.062Z,15.70
2023-05-25T20:54:49.015Z,15.70
2023-05-25T20:57:16.903Z,15.70
2023-05-25T20:59:44.790Z,15.60
2023-05-25T21:02:14.053Z,15.60
2023-05-25T21:04:41.909Z,15.50
2023-05-25T21:07:09.796Z,15.50
2023-05-25T21:09:38.673Z,15.40
2023-05-25T21:12:07.524Z,15.40
2023-05-25T21:14:35.651Z,15.40
2023-05-25T21:17:03.536Z,15.40
2023-05-25T21:19:32.717Z,15.30
2023-05-25T21:22:00.900Z,15.20
2023-05-25T21:24:28.791Z,15.20
2023-05-25T21:26:56.671Z,15.20
2023-05-25T21:29:24.528Z,15.10
2023-05-25T21:31:52.458Z,15.10
2023-05-25T21:34:20.346Z,15.10
2023-05-25T21:36:50.031Z,15.00
2023-05-25T21:39:18.130Z,15.00
2023-05-25T21:41:46.431Z,14.90
2023-05-25T21:44:14.281Z,14.90
2023-05-25T21:46:42.249Z,14.80
2023-05-25T21:49:10.599Z,14.80
2023-05-25T21:51:38.470Z,14.80
2023-05-25T21:54:07.733Z,14.70
2023-05-25T21:56:35.594Z,14.70
2023-05-25T21:59:03.458Z,14.70
2023-05-25T22:01:31.434Z,14.70
2023-05-25T22:03:59.386Z,14.60
2023-05-25T22:06:27.256Z,14.60
2023-05-25T22:08:55.128Z,14.60
2023-05-25T22:11:25.190Z,14.50
2023-05-25T22:13:53.474Z,14.50
2023-05-25T22:16:21.683Z,14.50
2023-05-25T22:18:49.704Z,14.40
2023-05-25T22:21:17.629Z,14.40
2023-05-25T22:23:45.506Z,14.40
2023-05-25T22:26:13.405Z,14.40
2023-05-25T22:28:42.644Z,14.40
2023-05-25T22:31:11.344Z,14.30
2023-05-25T22:33:39.376Z,14.30
2023-05-25T22:36:07.563Z,14.30
2023-05-25T22:38:35.484Z,14.30
2023-05-25T22:41:03.439Z,14.20
2023-05-25T22:43:31.294Z,14.20
2023-05-25T22:46:00.950Z,14.20
2023-05-25T22:48:28.868Z,14.20
2023-05-25T22:50:57.010Z,14.20
2023-05-25T22:53:25.043Z,14.10
2023-05-25T22:55:52.885Z,14.10
2023-05-25T22:58:20.766Z,14.00
2023-05-25T23:00:48.820Z,14.00
2023-05-25T23:03:18.095Z,14.00
2023-05-25T23:05:46.442Z,14.00
2023-05-25T23:08:14.514Z,13.90
2023-05-25T23:10:42.378Z,13.90
2023-05-25T23:13:10.654Z,13.90
2023-05-25T23:15:39.959Z,13.90
2023-05-25T23:18:08.247Z,13.90
2023-05-25T23:20:37.507Z,13.80
2023-05-25T23:23:05.413Z,13.80
2023-05-25T23:25:33.303Z,13.70
2023-05-25T23:28:01.205Z,13.70
2023-05-25T23:30:29.092Z,13.70
2023-05-25T23:32:57.002Z,13.70
2023-05-25T23:35:24.920Z,13.70
2023-05-25T23:37:54.699Z,13.70
2023-05-25T23:40:22.742Z,13.60
2023-05-25T23:42:51.990Z,13.60
2023-05-25T23:45:20.106Z,13.60
2023-05-25T23:47:48.014Z,13.50
2023-05-25T23:50:15.967Z,13.50
2023-05-25T23:52:44.063Z,13.50
2023-05-25T23:55:13.441Z,13.50
2023-05-25T23:57:41.555Z,13.50
